Time;durP1;ratioP1;P1;durP2;ratioP2;P2;SDS_P1;SDS_P2;PMS_P1;PMS_P2;Temp;Humidity;BMP_temperature;BMP_pressure;BME280_temperature;BME280_humidity;BME280_pressure;Samples;Min_cycle;Max_cycle;Signal;HPM_P1;HPM_P2
2022/12/29 15:00:31;;;;;;;5.05;2.13;;;;;;;10.02;100.00;98479.13;5129069;27;20365;-77
2022/12/29 15:03:05;;;;;;;2.42;1.80;;;;;;;10.13;100.00;98488.59;5128820;27;20134;-77
2022/12/29 15:05:38;;;;;;;5.47;1.88;;;;;;;10.07;100.00;98470.38;5127504;27;20051;-77
2022/12/29 15:08:06;;;;;;;2.47;1.73;;;;;;;10.17;100.00;98480.91;5130414;27;20043;-77
2022/12/29 15:10:40;;;;;;;3.17;1.70;;;;;;;10.17;100.00;98461.91;5121236;27;20051;-77
2022/12/29 15:13:16;;;;;;;3.28;1.67;;;;;;;10.13;100.00;98466.03;5123715;27;20039;-77
2022/12/29 15:15:44;;;;;;;3.65;1.80;;;;;;;10.30;100.00;98480.16;5112308;28;20055;-77
2022/12/29 15:18:25;;;;;;;3.38;1.33;;;;;;;10.21;100.00;98453.16;5117868;28;20055;-77
2022/12/29 15:20:57;;;;;;;5.13;1.60;;;;;;;10.24;100.00;98460.91;5117668;28;20062;-77
2022/12/29 15:23:24;;;;;;;2.03;1.10;;;;;;;10.34;100.00;98489.63;5118085;28;20521;-77
2022/12/29 15:25:55;;;;;;;5.00;1.80;;;;;;;10.18;100.00;98479.88;5115169;28;20060;-77
2022/12/29 15:28:22;;;;;;;4.50;1.60;;;;;;;10.42;100.00;98495.72;5122378;27;20433;-77
2022/12/29 15:30:56;;;;;;;3.83;1.55;;;;;;;10.39;100.00;98507.00;5128982;27;20047;-77
2022/12/29 15:33:27;;;;;;;3.30;1.52;;;;;;;10.20;100.00;98494.94;5129403;28;20058;-77
2022/12/29 15:35:55;;;;;;;6.63;2.97;;;;;;;10.22;100.00;98525.47;5129912;27;20088;-77
2022/12/29 15:38:24;;;;;;;4.57;3.13;;;;;;;10.18;100.00;98573.06;5130112;28;20044;-77
2022/12/29 15:40:55;;;;;;;3.08;1.42;;;;;;;9.70;100.00;98565.53;5126091;28;20047;-77
2022/12/29 15:43:34;;;;;;;5.07;1.92;;;;;;;9.51;100.00;98613.13;5117838;28;20474;-77
2022/12/29 15:46:03;;;;;;;2.63;0.90;;;;;;;9.04;100.00;98604.44;5118853;28;20047;-79
2022/12/29 15:48:31;;;;;;;2.90;1.20;;;;;;;8.81;100.00;98592.91;5108327;28;20052;-77
2022/12/29 15:50:59;;;;;;;2.80;1.38;;;;;;;8.58;100.00;98590.25;5104536;27;20047;-78
2022/12/29 15:53:28;;;;;;;2.40;1.30;;;;;;;8.59;100.00;98598.19;5111868;28;20047;-78
2022/12/29 15:55:57;;;;;;;8.23;2.25;;;;;;;8.52;100.00;98608.13;5125449;28;20100;-78
2022/12/29 15:58:26;;;;;;;1.88;1.20;;;;;;;8.54;100.00;98611.47;5122629;27;20456;-77
2022/12/29 16:00:54;;;;;;;2.83;0.95;;;;;;;8.49;100.00;98598.50;5112277;27;20645;-77
2022/12/29 16:03:25;;;;;;;1.17;1.05;;;;;;;8.52;100.00;98597.28;5123075;27;20055;-77
2022/12/29 16:05:54;;;;;;;3.15;1.30;;;;;;;8.31;100.00;98584.44;5117341;27;20055;-78
2022/12/29 16:08:36;;;;;;;2.92;1.42;;;;;;;8.42;100.00;98612.94;5119248;27;20592;-78
2022/12/29 16:11:05;;;;;;;2.38;1.38;;;;;;;8.27;100.00;98581.22;5108888;28;20047;-78
2022/12/29 16:13:35;;;;;;;2.97;1.02;;;;;;;8.51;100.00;98614.56;5102014;28;20094;-78
2022/12/29 16:16:09;;;;;;;3.70;1.60;;;;;;;8.46;100.00;98606.97;5108584;28;20119;-78
2022/12/29 16:18:39;;;;;;;3.35;1.40;;;;;;;8.29;100.00;98594.59;5097733;28;20413;-77
2022/12/29 16:21:16;;;;;;;3.85;1.60;;;;;;;8.40;100.00;98613.13;5104234;28;20050;-78
2022/12/29 16:23:47;;;;;;;1.90;1.17;;;;;;;8.43;100.00;98615.44;5093654;28;20059;-77
2022/12/29 16:26:17;;;;;;;2.47;1.73;;;;;;;8.46;100.00;98617.81;5077972;28;20473;-78
2022/12/29 16:28:44;;;;;;;4.30;2.15;;;;;;;8.42;100.00;98602.94;5081608;28;20056;-77
2022/12/29 16:31:21;;;;;;;4.28;2.72;;;;;;;8.43;100.00;98620.00;5083951;28;20055;-78
2022/12/29 16:33:51;;;;;;;1.92;1.70;;;;;;;8.31;100.00;98606.09;5084351;28;20063;-78
2022/12/29 16:36:32;;;;;;;4.72;1.75;;;;;;;8.28;100.00;98598.31;5089788;28;20044;-77
2022/12/29 16:39:33;;;;;;;2.67;1.65;;;;;;;8.29;100.00;98605.41;5081509;28;20130;-78
2022/12/29 16:42:00;;;;;;;4.75;1.67;;;;;;;8.26;100.00;98593.09;5066058;28;20406;-78
2022/12/29 16:44:29;;;;;;;4.90;1.83;;;;;;;8.33;100.00;98621.13;5087778;28;20048;-78
2022/12/29 16:47:02;;;;;;;2.33;1.30;;;;;;;8.29;100.00;98616.25;5108213;28;20052;-78
2022/12/29 16:49:32;;;;;;;3.25;1.23;;;;;;;8.33;100.00;98634.66;5106570;28;20056;-78
2022/12/29 16:51:58;;;;;;;2.10;1.58;;;;;;;8.37;100.00;98645.13;5103480;28;20505;-77
2022/12/29 16:54:33;;;;;;;5.38;1.50;;;;;;;8.15;100.00;98616.03;5107049;28;20059;-77
2022/12/29 16:57:00;;;;;;;6.03;2.17;;;;;;;8.16;100.00;98630.44;5102815;28;20482;-77
2022/12/29 16:59:34;;;;;;;5.03;1.42;;;;;;;8.11;100.00;98606.63;5104607;28;20046;-77
2022/12/29 17:02:06;;;;;;;4.22;1.50;;;;;;;8.22;100.00;98634.25;5104468;28;20708;-77
2022/12/29 17:04:34;;;;;;;2.92;1.55;;;;;;;7.96;100.00;98614.69;5108092;28;20553;-77
2022/12/29 17:07:00;;;;;;;2.58;1.73;;;;;;;8.01;100.00;98643.91;5110899;28;20051;-77
2022/12/29 17:09:29;;;;;;;3.05;1.83;;;;;;;8.07;100.00;98653.16;5102795;28;20040;-77
2022/12/29 17:11:58;;;;;;;4.53;2.03;;;;;;;8.03;100.00;98632.91;5098312;28;20047;-77
2022/12/29 17:14:36;;;;;;;2.90;1.65;;;;;;;8.19;100.00;98648.16;5100748;28;20056;-78
2022/12/29 17:17:05;;;;;;;3.35;2.17;;;;;;;7.94;100.00;98624.00;5100577;28;20184;-78
2022/12/29 17:19:34;;;;;;;3.95;2.55;;;;;;;7.93;100.00;98630.44;5106089;28;20047;-78
2022/12/29 17:22:01;;;;;;;9.07;2.90;;;;;;;8.15;100.00;98659.34;5109245;28;20328;-77
2022/12/29 17:24:28;;;;;;;5.45;2.13;;;;;;;8.07;100.00;98645.03;5107707;28;20116;-78
2022/12/29 17:26:58;;;;;;;3.15;2.03;;;;;;;7.97;100.00;98642.59;5102433;28;20051;-77
2022/12/29 17:29:31;;;;;;;6.93;3.22;;;;;;;8.04;100.00;98630.03;5101888;28;20399;-77
2022/12/29 17:31:58;;;;;;;6.45;2.00;;;;;;;8.09;100.00;98654.66;5103902;28;20479;-78
2022/12/29 17:34:25;;;;;;;4.15;2.72;;;;;;;8.26;100.00;98662.66;5102023;28;20056;-78
2022/12/29 17:36:53;;;;;;;3.63;2.30;;;;;;;8.07;100.00;98629.66;5105055;28;20142;-78
2022/12/29 17:39:20;;;;;;;6.88;2.60;;;;;;;8.15;100.00;98643.09;5101606;28;20053;-78
2022/12/29 17:41:46;;;;;;;8.20;3.05;;;;;;;8.18;100.00;98646.50;5107766;28;20128;-78
2022/12/29 17:44:17;;;;;;;14.38;7.35;;;;;;;8.16;100.00;98665.63;5097530;28;20051;-78
2022/12/29 17:46:44;;;;;;;8.32;4.25;;;;;;;7.91;100.00;98637.91;5104568;28;20051;-78
2022/12/29 17:49:13;;;;;;;8.82;3.67;;;;;;;8.03;100.00;98660.81;5095749;28;20622;-77
2022/12/29 17:51:40;;;;;;;9.07;4.20;;;;;;;7.86;100.00;98643.84;5106478;28;20051;-77
2022/12/29 17:54:17;;;;;;;6.63;3.17;;;;;;;7.96;100.00;98649.88;5099432;28;20156;-77
2022/12/29 17:56:44;;;;;;;10.15;4.18;;;;;;;8.14;100.00;98659.53;5097936;28;20052;-77
2022/12/29 17:59:12;;;;;;;68.50;41.90;;;;;;;7.96;100.00;98643.59;5104649;28;20514;-77
2022/12/29 18:01:39;;;;;;;14.90;7.32;;;;;;;7.94;100.00;98637.53;5106374;28;20414;-77
2022/12/29 18:04:06;;;;;;;7.13;3.67;;;;;;;8.06;100.00;98657.75;5105366;28;20048;-77
2022/12/29 18:06:35;;;;;;;6.70;3.22;;;;;;;8.00;100.00;98658.47;5094856;28;20043;-77
2022/12/29 18:09:01;;;;;;;6.87;2.73;;;;;;;7.92;100.00;98645.00;5096049;28;20071;-77
2022/12/29 18:11:29;;;;;;;6.50;3.22;;;;;;;8.05;100.00;98671.47;5106276;28;20051;-77
2022/12/29 18:13:56;;;;;;;4.85;2.42;;;;;;;8.05;100.00;98671.47;5099927;28;20457;-77
2022/12/29 18:16:23;;;;;;;4.22;2.67;;;;;;;7.87;100.00;98642.81;5109401;28;20074;-77
2022/12/29 18:18:49;;;;;;;3.33;1.67;;;;;;;8.01;100.00;98679.09;5100036;28;20047;-77
2022/12/29 18:21:19;;;;;;;5.28;2.10;;;;;;;8.00;100.00;98674.72;5103341;28;20567;-77
2022/12/29 18:23:47;;;;;;;4.10;2.13;;;;;;;7.88;100.00;98676.16;5098222;28;20052;-77
2022/12/29 18:26:17;;;;;;;2.88;1.60;;;;;;;7.75;100.00;98661.34;5102701;28;20059;-77
2022/12/29 18:28:48;;;;;;;3.05;1.17;;;;;;;7.87;100.00;98677.16;5100349;28;20054;-77
2022/12/29 18:31:18;;;;;;;8.13;1.40;;;;;;;7.86;100.00;98691.72;5103387;28;20429;-77
2022/12/29 18:33:45;;;;;;;7.30;1.45;;;;;;;7.71;100.00;98662.72;5098939;28;20135;-77
2022/12/29 18:36:13;;;;;;;4.68;1.00;;;;;;;7.84;100.00;98683.78;5096135;28;20442;-77
2022/12/29 18:38:39;;;;;;;1.95;0.93;;;;;;;7.77;100.00;98674.72;5097101;28;20482;-77
2022/12/29 18:41:06;;;;;;;3.83;1.25;;;;;;;7.68;100.00;98660.38;5105085;28;20127;-77
2022/12/29 18:43:32;;;;;;;8.02;1.58;;;;;;;7.69;100.00;98667.47;5103092;28;20050;-76
2022/12/29 18:46:00;;;;;;;5.03;1.23;;;;;;;7.56;100.00;98659.94;5108709;28;20063;-77
2022/12/29 18:48:28;;;;;;;1.83;1.05;;;;;;;7.74;100.00;98673.19;5095086;28;20529;-76
2022/12/29 18:50:55;;;;;;;5.90;1.27;;;;;;;7.74;100.00;98669.66;5106839;28;20048;-77
2022/12/29 18:53:23;;;;;;;6.00;1.50;;;;;;;7.71;100.00;98661.91;5094489;28;20056;-77
2022/12/29 18:55:50;;;;;;;4.38;2.13;;;;;;;7.80;100.00;98677.88;5098429;28;20058;-77
2022/12/29 18:58:16;;;;;;;5.03;1.40;;;;;;;7.69;100.00;98662.03;5110164;28;20074;-77
2022/12/29 19:00:43;;;;;;;5.32;1.60;;;;;;;7.72;100.00;98686.06;5095001;28;20127;-77
2022/12/29 19:03:13;;;;;;;3.55;1.70;;;;;;;7.69;100.00;98667.47;5098198;28;20044;-76
2022/12/29 19:05:41;;;;;;;6.25;2.60;;;;;;;7.72;100.00;98680.66;5108701;28;20115;-77
2022/12/29 19:08:09;;;;;;;6.53;2.05;;;;;;;7.68;100.00;98695.56;5108236;28;20508;-77
2022/12/29 19:10:37;;;;;;;6.05;2.22;;;;;;;7.56;100.00;98694.28;5103536;28;20082;-76
2022/12/29 19:13:04;;;;;;;11.10;2.53;;;;;;;7.58;100.00;98692.22;5106414;28;20133;-77
2022/12/29 19:15:32;;;;;;;5.70;2.60;;;;;;;7.46;100.00;98674.72;5109251;28;20110;-77
2022/12/29 19:18:00;;;;;;;6.50;2.60;;;;;;;7.66;100.00;98689.47;5103021;28;20050;-77
2022/12/29 19:20:30;;;;;;;5.18;1.70;;;;;;;7.57;100.00;98680.56;5108329;28;20051;-77
2022/12/29 19:22:58;;;;;;;3.78;1.75;;;;;;;7.53;100.00;98678.41;5101708;28;20050;-77
2022/12/29 19:25:25;;;;;;;2.03;1.65;;;;;;;7.49;100.00;98677.06;5108649;28;20049;-77
2022/12/29 19:27:52;;;;;;;3.90;1.88;;;;;;;7.57;100.00;98688.69;5108221;28;20096;-77
2022/12/29 19:30:19;;;;;;;3.22;1.23;;;;;;;7.56;100.00;98684.28;5108624;28;20124;-77
2022/12/29 19:32:48;;;;;;;2.92;1.80;;;;;;;7.50;100.00;98700.38;5103466;28;20044;-77
2022/12/29 19:35:16;;;;;;;3.33;1.60;;;;;;;7.41;100.00;98689.59;5102305;28;20056;-77
2022/12/29 19:37:44;;;;;;;1.85;1.40;;;;;;;7.34;100.00;98698.59;5108460;28;20052;-77
2022/12/29 19:40:13;;;;;;;6.97;1.63;;;;;;;7.34;100.00;98685.91;5108824;28;20052;-77
2022/12/29 19:42:40;;;;;;;5.03;1.80;;;;;;;7.40;100.00;98692.47;5107623;28;20054;-77
2022/12/29 19:45:07;;;;;;;5.63;1.83;;;;;;;7.30;100.00;98668.38;5104460;28;20043;-77
2022/12/29 19:47:34;;;;;;;5.88;1.65;;;;;;;7.34;100.00;98679.66;5107976;27;20130;-77
2022/12/29 19:50:02;;;;;;;3.97;1.90;;;;;;;7.28;100.00;98675.78;5111173;28;20039;-77
2022/12/29 19:52:30;;;;;;;3.95;1.90;;;;;;;7.19;100.00;98664.16;5091282;28;20048;-77
2022/12/29 19:54:59;;;;;;;7.00;2.45;;;;;;;7.30;100.00;98695.41;5103187;28;20122;-77
2022/12/29 19:57:26;;;;;;;8.48;2.40;;;;;;;7.25;100.00;98690.50;5109741;28;20059;-77
2022/12/29 19:59:53;;;;;;;7.07;2.50;;;;;;;7.26;100.00;98672.44;5109331;28;20138;-76
2022/12/29 20:02:22;;;;;;;3.58;1.75;;;;;;;7.37;100.00;98682.00;5106622;28;20414;-77
2022/12/29 20:04:49;;;;;;;4.90;2.03;;;;;;;7.40;100.00;98698.72;5106998;27;20049;-77
2022/12/29 20:07:16;;;;;;;9.40;2.33;;;;;;;7.34;100.00;98695.88;5110267;27;20056;-77
2022/12/29 20:09:43;;;;;;;6.40;2.08;;;;;;;7.26;100.00;98680.56;5111179;27;20058;-77
2022/12/29 20:12:11;;;;;;;6.50;1.58;;;;;;;7.12;100.00;98671.31;5111439;28;20487;-77
2022/12/29 20:14:39;;;;;;;3.13;1.48;;;;;;;7.21;100.00;98682.91;5108253;27;20050;-77
2022/12/29 20:17:06;;;;;;;2.20;1.27;;;;;;;7.25;100.00;98692.38;5111749;28;20058;-77
2022/12/29 20:19:33;;;;;;;4.53;1.48;;;;;;;7.13;100.00;98686.50;5111096;28;20101;-78
2022/12/29 20:22:00;;;;;;;7.93;1.23;;;;;;;7.12;100.00;98695.66;5112054;27;20047;-78
2022/12/29 20:24:27;;;;;;;1.45;1.13;;;;;;;7.09;100.00;98713.03;5102550;28;20044;-78
2022/12/29 20:26:53;;;;;;;2.75;1.20;;;;;;;6.97;100.00;98697.38;5120397;27;20046;-78
2022/12/29 20:29:22;;;;;;;5.63;1.77;;;;;;;7.04;100.00;98699.19;5118712;27;20040;-78
2022/12/29 20:31:49;;;;;;;10.35;3.10;;;;;;;7.00;100.00;98695.16;5110239;28;20051;-78
2022/12/29 20:34:17;;;;;;;4.18;1.20;;;;;;;7.08;100.00;98708.66;5105775;28;20055;-78
2022/12/29 20:36:46;;;;;;;5.65;2.63;;;;;;;6.99;100.00;98711.56;5112638;27;20137;-78
2022/12/29 20:39:15;;;;;;;1.75;1.13;;;;;;;6.97;100.00;98727.94;5116897;27;20043;-78
2022/12/29 20:41:42;;;;;;;2.88;0.82;;;;;;;6.94;100.00;98725.59;5112939;27;20045;-78
2022/12/29 20:44:10;;;;;;;4.15;1.70;;;;;;;7.02;100.00;98727.44;5099764;28;20446;-77
2022/12/29 20:46:38;;;;;;;4.57;1.20;;;;;;;6.88;100.00;98710.03;5110823;28;20054;-77
2022/12/29 20:49:06;;;;;;;3.33;1.00;;;;;;;7.00;100.00;98734.84;5110301;28;20062;-77
2022/12/29 20:51:32;;;;;;;5.03;1.75;;;;;;;6.86;100.00;98695.88;5111435;28;20479;-76
2022/12/29 20:53:59;;;;;;;5.22;1.40;;;;;;;6.97;100.00;98735.19;5103574;27;20063;-76
2022/12/29 20:56:27;;;;;;;3.35;1.40;;;;;;;6.95;100.00;98743.47;5109936;27;20051;-76
2022/12/29 20:58:54;;;;;;;3.50;1.30;;;;;;;6.81;100.00;98720.72;5078950;28;20044;-77
2022/12/29 21:01:23;;;;;;;3.72;1.20;;;;;;;6.83;100.00;98724.06;5110673;28;20050;-77
2022/12/29 21:03:52;;;;;;;5.10;1.65;;;;;;;7.00;100.00;98753.78;5111555;28;20058;-77
2022/12/29 21:06:20;;;;;;;2.97;1.10;;;;;;;6.93;100.00;98748.22;5112752;28;20086;-77
2022/12/29 21:08:48;;;;;;;6.47;0.90;;;;;;;6.92;100.00;98751.94;5106001;28;20123;-76
2022/12/29 21:11:15;;;;;;;1.63;1.20;;;;;;;6.87;100.00;98747.03;5107639;28;20051;-77
2022/12/29 21:13:42;;;;;;;2.65;1.05;;;;;;;6.80;100.00;98729.81;5106835;28;20051;-76
2022/12/29 21:16:09;;;;;;;7.57;1.20;;;;;;;6.73;100.00;98740.47;5107714;27;20046;-77
2022/12/29 21:18:35;;;;;;;2.97;0.80;;;;;;;6.66;100.00;98725.97;5106929;28;20054;-77
2022/12/29 21:21:07;;;;;;;2.05;0.80;;;;;;;6.62;100.00;98708.41;5110426;28;20055;-77
2022/12/29 21:23:33;;;;;;;2.10;1.13;;;;;;;6.65;100.00;98718.88;5109646;28;20047;-77
2022/12/29 21:26:00;;;;;;;1.73;1.13;;;;;;;6.55;100.00;98702.84;5093499;28;20063;-77
2022/12/29 21:28:27;;;;;;;2.97;0.90;;;;;;;6.62;100.00;98729.19;5089867;28;20143;-77
2022/12/29 21:30:53;;;;;;;6.00;1.50;;;;;;;6.69;100.00;98741.00;5111622;27;20274;-76
2022/12/29 21:33:21;;;;;;;8.20;1.40;;;;;;;6.60;100.00;98733.91;5109064;27;20051;-76
2022/12/29 21:35:48;;;;;;;2.45;1.05;;;;;;;6.69;100.00;98741.81;5108853;28;20067;-76
2022/12/29 21:38:16;;;;;;;2.05;0.90;;;;;;;6.71;100.00;98755.16;5112269;28;20406;-76
2022/12/29 21:40:42;;;;;;;3.88;1.17;;;;;;;6.62;100.00;98730.00;5108370;28;20039;-75
2022/12/29 21:43:11;;;;;;;4.07;0.90;;;;;;;6.53;100.00;98715.69;5095439;28;20055;-76
2022/12/29 21:45:36;;;;;;;3.55;0.98;;;;;;;6.61;100.00;98714.84;5110319;28;20055;-76
2022/12/29 21:48:27;;;;;;;5.65;1.60;;;;;;;6.51;100.00;98709.59;5105636;28;20048;-76
2022/12/29 21:53:44;;;;;;;2.40;0.82;;;;;;;6.66;100.00;98752.97;5096177;28;20058;-76
2022/12/29 21:56:13;;;;;;;2.08;0.80;;;;;;;6.75;100.00;98766.50;5103268;28;20048;-77
2022/12/29 22:15:10;;;;;;;2.95;0.80;;;;;;;6.65;100.00;98766.66;5101221;28;20063;-76
2022/12/29 22:17:36;;;;;;;5.60;0.85;;;;;;;6.54;100.00;98752.47;5107640;27;20051;-76
2022/12/29 22:20:05;;;;;;;0.77;0.65;;;;;;;6.42;100.00;98761.94;5102076;28;20205;-77
2022/12/29 22:22:31;;;;;;;4.63;0.93;;;;;;;6.43;100.00;98790.63;5103235;28;20051;-77
2022/12/29 22:24:59;;;;;;;6.50;1.33;;;;;;;6.59;100.00;98808.69;5096122;28;20050;-77
2022/12/29 22:27:26;;;;;;;2.90;0.63;;;;;;;6.59;100.00;98803.28;5100819;28;20491;-77
2022/12/29 22:29:52;;;;;;;2.55;0.80;;;;;;;6.50;100.00;98815.09;5100652;28;20418;-77
2022/12/29 22:32:20;;;;;;;2.00;0.75;;;;;;;6.52;100.00;98816.63;5104938;28;20112;-77
2022/12/29 22:34:47;;;;;;;3.75;0.88;;;;;;;6.36;100.00;98800.41;5108963;27;20047;-77
2022/12/29 22:37:14;;;;;;;1.52;0.73;;;;;;;6.45;100.00;98818.28;5098953;28;20113;-77
2022/12/29 22:39:41;;;;;;;2.42;0.82;;;;;;;6.30;100.00;98801.91;5105956;28;20504;-77
2022/12/29 22:42:09;;;;;;;1.30;0.70;;;;;;;6.49;100.00;98837.72;5100857;28;20054;-77
2022/12/29 22:44:35;;;;;;;3.80;0.88;;;;;;;6.33;100.00;98806.13;5099986;28;20406;-77
2022/12/29 22:47:02;;;;;;;5.43;0.60;;;;;;;6.55;100.00;98847.84;5104036;28;20040;-77
2022/12/29 22:49:29;;;;;;;1.70;0.68;;;;;;;6.46;100.00;98811.91;5098157;28;20048;-77
2022/12/29 22:51:55;;;;;;;0.80;0.55;;;;;;;6.43;100.00;98835.66;5103572;28;20043;-77
2022/12/29 22:54:22;;;;;;;1.40;0.57;;;;;;;6.35;100.00;98845.47;5102202;28;20058;-77
2022/12/29 22:56:48;;;;;;;1.27;0.38;;;;;;;6.44;100.00;98865.19;5106654;28;20043;-76
2022/12/29 22:59:17;;;;;;;1.17;0.68;;;;;;;6.27;100.00;98855.41;5105534;28;20048;-77
2022/12/29 23:01:43;;;;;;;1.35;0.50;;;;;;;6.40;100.00;98880.06;5104814;28;20054;-77
2022/12/29 23:04:10;;;;;;;1.30;0.60;;;;;;;6.35;100.00;98868.91;5103897;28;20052;-77
2022/12/29 23:06:36;;;;;;;3.38;0.75;;;;;;;6.43;100.00;98871.63;5105728;28;20435;-77
2022/12/29 23:09:05;;;;;;;0.77;0.75;;;;;;;6.44;100.00;98859.81;5112090;27;20051;-77
2022/12/29 23:11:32;;;;;;;1.08;0.50;;;;;;;6.42;100.00;98866.41;5096168;28;20495;-77
2022/12/29 23:13:59;;;;;;;1.90;0.68;;;;;;;6.35;100.00;98847.31;5102042;28;20670;-77
2022/12/29 23:16:27;;;;;;;1.60;0.82;;;;;;;6.48;100.00;98881.94;5097004;28;20564;-77
2022/12/29 23:18:53;;;;;;;3.28;0.63;;;;;;;6.17;100.00;98852.81;5105707;28;20051;-77
2022/12/29 23:21:20;;;;;;;1.30;0.77;;;;;;;6.22;100.00;98885.59;5105328;28;20043;-77
2022/12/29 23:23:53;;;;;;;4.03;0.70;;;;;;;6.16;100.00;98880.84;5110591;27;20417;-77
2022/12/29 23:26:21;;;;;;;0.25;0.25;;;;;;;6.12;100.00;98872.22;5100741;28;20057;-77
2022/12/29 23:28:48;;;;;;;2.00;0.70;;;;;;;6.18;100.00;98884.22;5110018;27;20059;-77
2022/12/29 23:31:15;;;;;;;1.52;0.50;;;;;;;6.25;100.00;98914.94;5112403;27;20058;-77
2022/12/29 23:33:43;;;;;;;4.57;0.70;;;;;;;6.25;100.00;98885.25;5106411;28;20048;-77
2022/12/29 23:36:10;;;;;;;4.15;0.73;;;;;;;6.22;100.00;98893.69;5108233;27;20047;-77
2022/12/29 23:38:36;;;;;;;1.55;0.50;;;;;;;6.40;100.00;98908.91;5107827;27;20062;-77
2022/12/29 23:41:03;;;;;;;7.68;1.42;;;;;;;6.21;100.00;98908.19;5107190;28;20055;-77
2022/12/29 23:43:30;;;;;;;0.68;0.60;;;;;;;6.33;100.00;98917.66;5096633;28;20054;-77
2022/12/29 23:45:56;;;;;;;0.80;0.80;;;;;;;6.31;100.00;98914.28;5103763;28;20057;-77
2022/12/29 23:48:23;;;;;;;0.90;0.63;;;;;;;6.18;100.00;98886.91;5110102;28;20388;-77
2022/12/29 23:50:51;;;;;;;0.85;0.60;;;;;;;6.24;100.00;98902.44;5105694;28;20048;-77
2022/12/29 23:53:17;;;;;;;2.13;0.88;;;;;;;6.24;100.00;98902.44;5105206;28;20051;-77
2022/12/29 23:55:44;;;;;;;1.77;0.60;;;;;;;6.09;100.00;98887.91;5107459;27;20095;-77
2022/12/29 23:58:11;;;;;;;2.03;0.88;;;;;;;5.99;100.00;98891.56;5110644;27;20502;-77
